Hovedside
METAR-TAF:

METAR-TAF

Lufthavner :

Pärnu lufthavn

Pärnu, Estland

breddegrad: 58-25-09N, lengdegrad: 024-28-22E, høyde over havet: 14 m

Gjeldene værobservasjon

Denne rapporten ble laget for 6 timer og 28 minutter siden, klokken 12:50 UTC
Vind 10 kt fra Sør-sørvest
Temperatur 20°C
Luftfuktighet 40%
Trykk 1026 hPa
Sikt 10 km eller mer
ingen skyer under 1500 m og ingen bygeskyer

METAR: EEPU 201250Z 21010KT CAVOK 20/06 Q1026

Tid: 22:18 (19:18 UTC)


TAF: fraværende

Værobservasjoner og værvarsel for over 4000 flyplasser (METAR- og TAF-rapporter).

Tilgjengelige stasjoner er representert av de røde og gule prikkene på kartet.

Hold musepekeren over prikken for å se navnet på stasjonen.

Klikk så for å se værobservasjoner og -varsler.

For å forandre kartet kan du klikke på den grønne knappen med svart kryss for å zoome inn, på den grønne knappen med strek for å zoome ut, eller på de grønne pilene for å se tilstøtende kart.


METAR-TAF: